Time;durP1;ratioP1;P1;durP2;ratioP2;P2;SDS_P1;SDS_P2;PMS_P1;PMS_P2;Temp;Humidity;BMP_temperature;BMP_pressure;BME280_temperature;BME280_humidity;BME280_pressure;Samples;Min_cycle;Max_cycle;Signal;HPM_P1;HPM_P2
2023/01/04 00:05:41;;;;;;;;;;;;;;;;;;;;;
2023/01/04 00:32:25;;;;;;;57.50;35.90;;;;;;;6.98;63.47;100332.65;234179;1200;138893;-69
2023/01/04 00:39:32;;;;;;;;;;;;;;;;;;;;;
2023/01/04 01:06:06;;;;;;;60.10;36.80;;;;;;;6.91;64.90;100321.91;233938;1201;139579;-69
2023/01/04 01:12:35;;;;;;;59.50;37.40;;;;;;;6.74;64.35;100320.75;234058;1200;140696;-70
2023/01/04 01:18:40;;;;;;;56.60;36.30;;;;;;;6.62;64.68;100321.44;234095;1199;139290;-66
2023/01/04 01:24:37;;;;;;;;;;;;;;;;;;;;;
2023/01/04 02:57:51;;;;;;;42.30;24.60;;;;;;;6.28;67.11;100283.14;235538;1195;98460;-65
2023/01/04 04:21:33;;;;;;;106.00;66.70;;;;;;;6.00;65.53;100231.66;234656;1196;138648;-73
2023/01/04 04:34:42;;;;;;;48.90;30.80;;;;;;;5.76;65.81;100227.44;234466;1199;140107;-64
2023/01/04 05:01:55;;;;;;;;;;;;;;;;;;;;;
2023/01/04 05:08:18;;;;;;;48.10;32.60;;;;;;;5.54;66.51;100202.42;234173;1196;140364;-66
2023/01/04 05:43:45;;;;;;;;;;;;;;;;;;;;;
2023/01/04 05:56:56;;;;;;;;;;;;;;;;;;;;;
2023/01/04 06:17:28;;;;;;;;;;;;;;;;;;;;;
2023/01/04 07:52:37;;;;;;;57.70;34.70;;;;;;;4.18;67.40;100109.94;234764;1196;139061;-64
2023/01/04 08:41:34;;;;;;;;;;;;;;;;;;;;;
2023/01/04 09:03:25;;;;;;;;;;;;;;;;;;;;;
2023/01/04 09:24:06;;;;;;;47.10;26.30;;;;;;;5.73;66.25;100059.00;233138;1206;138927;-65
2023/01/04 09:30:00;;;;;;;47.10;24.60;;;;;;;6.00;65.54;100040.70;235204;1198;107462;-66
2023/01/04 09:55:54;;;;;;;33.90;18.50;;;;;;;6.98;61.96;99975.94;224160;1200;138017;-64
2023/01/04 10:17:14;;;;;;;33.20;20.70;;;;;;;7.67;60.43;99915.83;233172;1203;139393;-64
2023/01/04 10:23:54;;;;;;;37.00;21.30;;;;;;;7.83;59.67;99897.05;232123;1212;139288;-64
2023/01/04 10:30:42;;;;;;;36.90;20.10;;;;;;;8.04;59.56;99883.59;231238;1216;139988;-64
2023/01/04 10:37:40;;;;;;;;;;;;;;;;;;;;;
2023/01/04 10:44:09;;;;;;;29.90;17.60;;;;;;;8.59;58.56;99859.84;230937;1208;139553;-65
2023/01/04 11:12:37;;;;;;;35.20;18.30;;;;;;;9.23;55.78;99796.60;234567;1198;138250;-66
2023/01/04 11:32:38;;;;;;;17.10;8.70;;;;;;;9.58;54.59;99722.91;233816;1200;138008;-67
2023/01/04 11:52:34;;;;;;;19.70;7.90;;;;;;;9.95;51.96;99688.39;233865;1200;138848;-66
2023/01/04 11:58:16;;;;;;;15.50;8.30;;;;;;;10.00;51.90;99681.25;234202;1199;138562;-66
2023/01/04 12:04:09;;;;;;;20.90;8.80;;;;;;;10.08;52.71;99676.77;234515;1196;138195;-66
2023/01/04 12:10:47;;;;;;;13.80;6.20;;;;;;;10.22;51.27;99668.80;234444;1196;140768;-67
2023/01/04 12:42:54;;;;;;;;;;;;;;;;;;;;;
2023/01/04 12:55:53;;;;;;;;;;;;;;;;;;;;;
2023/01/04 13:01:30;;;;;;;6.50;3.50;;;;;;;10.59;48.57;99553.89;234425;1198;138552;-69
2023/01/04 13:07:41;;;;;;;;;;;;;;;;;;;;;
2023/01/04 13:20:32;;;;;;;;;;;;;;;;;;;;;
2023/01/04 13:26:16;;;;;;;5.60;2.00;;;;;;;10.48;47.45;99499.64;234265;1199;137784;-66
2023/01/04 13:31:45;;;;;;;3.10;1.90;;;;;;;10.42;47.45;99492.88;234391;1198;138969;-70
2023/01/04 13:51:34;;;;;;;;;;;;;;;;;;;;;
2023/01/04 13:57:23;;;;;;;7.30;2.20;;;;;;;10.20;46.59;99456.83;235385;1193;138694;-68
2023/01/04 14:03:23;;;;;;;;;;;;;;;;;;;;;
2023/01/04 14:09:37;;;;;;;;;;;;;;;;;;;;;
2023/01/04 14:21:55;;;;;;;;;;;;;;;;;;;;;
2023/01/04 14:27:58;;;;;;;;;;;;;;;;;;;;;
2023/01/04 14:34:02;;;;;;;7.10;2.30;;;;;;;10.05;47.25;99385.44;235455;1193;138574;-69
2023/01/04 14:39:31;;;;;;;7.20;2.50;;;;;;;10.02;47.28;99360.25;235361;1193;138763;-70
2023/01/04 14:44:40;;;;;;;5.00;2.40;;;;;;;10.00;47.15;99362.87;235282;1192;138561;-71
2023/01/04 14:50:46;;;;;;;9.30;2.70;;;;;;;9.96;47.50;99355.28;235502;1192;139193;-77
2023/01/04 14:56:35;;;;;;;7.40;2.60;;;;;;;9.92;47.84;99341.13;235366;1193;138587;-66
2023/01/04 15:09:46;;;;;;;13.90;3.10;;;;;;;9.85;47.93;99332.11;234531;1193;139021;-67
2023/01/04 15:15:44;;;;;;;9.40;2.80;;;;;;;9.80;47.91;99315.94;235207;1193;138419;-69
2023/01/04 15:21:40;;;;;;;6.30;2.50;;;;;;;9.74;48.18;99305.27;235101;1193;138403;-67
2023/01/04 15:27:48;;;;;;;8.50;3.00;;;;;;;9.66;48.49;99289.55;235166;1192;138767;-69
2023/01/04 15:33:24;;;;;;;4.30;2.60;;;;;;;9.63;48.70;99277.84;235352;1192;138351;-75
2023/01/04 15:38:47;;;;;;;5.70;2.60;;;;;;;9.60;48.89;99254.45;235474;1194;138960;-69
2023/01/04 15:45:01;;;;;;;7.30;3.00;;;;;;;9.60;49.12;99240.14;235169;1192;138606;-72
2023/01/04 15:51:19;;;;;;;5.00;2.90;;;;;;;9.56;49.19;99237.84;235020;1196;138509;-75
2023/01/04 15:57:43;;;;;;;9.70;3.10;;;;;;;9.54;49.57;99228.45;235064;1192;139382;-68
2023/01/04 16:03:22;;;;;;;;;;;;;;;;;;;;;
2023/01/04 16:09:15;;;;;;;;;;;;;;;;;;;;;
2023/01/04 16:14:51;;;;;;;9.90;3.30;;;;;;;9.44;50.14;99222.92;234969;1193;139046;-70
2023/01/04 16:20:10;;;;;;;7.00;2.90;;;;;;;9.44;50.47;99222.38;235089;1193;138962;-72
2023/01/04 16:26:33;;;;;;;5.20;3.40;;;;;;;9.42;50.56;99215.77;235106;1195;139410;-71
2023/01/04 16:32:13;;;;;;;;;;;;;;;;;;;;;
2023/01/04 16:46:14;;;;;;;5.30;3.00;;;;;;;9.42;51.99;99182.66;234635;1194;139856;-68
2023/01/04 16:53:03;;;;;;;6.10;3.50;;;;;;;9.40;52.35;99158.88;234930;1194;139253;-70
2023/01/04 16:59:26;;;;;;;5.50;3.40;;;;;;;9.34;52.95;99164.71;235023;1192;139674;-69
2023/01/04 17:04:58;;;;;;;5.30;3.00;;;;;;;9.27;53.30;99173.42;234758;1193;139311;-68
2023/01/04 17:12:05;;;;;;;;;;;;;;;;;;;;;
2023/01/04 17:18:19;;;;;;;;;;;;;;;;;;;;;
2023/01/04 17:25:25;;;;;;;;;;;;;;;;;;;;;
2023/01/04 17:31:32;;;;;;;;;;;;;;;;;;;;;
2023/01/04 17:38:38;;;;;;;;;;;;;;;;;;;;;
2023/01/04 17:51:33;;;;;;;;;;;;;;;;;;;;;
2023/01/04 17:57:50;;;;;;;5.10;3.00;;;;;;;9.45;56.41;99040.46;235157;1193;138870;-71
2023/01/04 18:10:49;;;;;;;;;;;;;;;;;;;;;
2023/01/04 18:17:22;;;;;;;;;;;;;;;;;;;;;
2023/01/04 18:23:31;;;;;;;6.00;3.20;;;;;;;9.47;57.03;99012.91;234977;1193;139028;-68
2023/01/04 18:29:06;;;;;;;5.60;3.10;;;;;;;9.50;57.02;99000.19;234997;1196;139561;-70
2023/01/04 18:35:33;;;;;;;;;;;;;;;;;;;;;
2023/01/04 18:41:59;;;;;;;;;;;;;;;;;;;;;
2023/01/04 18:47:28;;;;;;;6.50;4.10;;;;;;;9.55;57.87;98962.52;235187;1196;138605;-73
2023/01/04 18:53:58;;;;;;;4.70;3.00;;;;;;;9.56;57.78;98951.12;235181;1193;138485;-68
2023/01/04 19:00:26;;;;;;;;;;;;;;;;;;;;;
2023/01/04 19:06:24;;;;;;;7.70;3.10;;;;;;;9.54;58.37;98932.14;235186;1193;139292;-70
2023/01/04 19:19:31;;;;;;;5.20;2.90;;;;;;;9.61;58.93;98940.71;235132;1192;138847;-71
2023/01/04 19:24:58;;;;;;;;;;;;;;;;;;;;;
2023/01/04 19:31:49;;;;;;;5.50;2.80;;;;;;;9.64;59.29;98913.95;234663;1193;140302;-72
2023/01/04 19:46:01;;;;;;;4.30;2.90;;;;;;;9.64;59.54;98919.98;234740;1197;139461;-70
2023/01/04 19:52:44;;;;;;;108.20;68.90;;;;;;;9.68;60.25;98911.05;234604;1197;138943;-71
2023/01/04 19:58:31;;;;;;;4.80;3.20;;;;;;;9.74;59.85;98897.08;234545;1195;140540;-76
2023/01/04 20:04:32;;;;;;;;;;;;;;;;;;;;;
2023/01/04 20:09:56;;;;;;;6.00;2.90;;;;;;;9.71;59.96;98880.94;234726;1193;138606;-73
2023/01/04 20:15:13;;;;;;;;;;;;;;;;;;;;;
2023/01/04 20:20:40;;;;;;;4.60;2.80;;;;;;;9.69;60.17;98855.75;234958;1197;139264;-76
2023/01/04 20:26:58;;;;;;;6.30;2.90;;;;;;;9.70;60.34;98839.56;234725;1193;138908;-74
2023/01/04 20:32:28;;;;;;;;;;;;;;;;;;;;;
2023/01/04 20:38:38;;;;;;;4.30;2.50;;;;;;;9.79;60.47;98810.31;234773;1197;138463;-73
2023/01/04 20:43:58;;;;;;;3.10;2.30;;;;;;;9.85;60.77;98818.78;234780;1193;138488;-73
2023/01/04 20:49:55;;;;;;;;;;;;;;;;;;;;;
2023/01/04 20:55:38;;;;;;;95.00;56.50;;;;;;;10.01;60.93;98819.02;234970;1193;139311;-70
2023/01/04 21:01:13;;;;;;;3.00;2.20;;;;;;;10.04;60.64;98820.59;234797;1193;141868;-70
2023/01/04 21:07:06;;;;;;;;;;;;;;;;;;;;;
2023/01/04 21:13:08;;;;;;;;;;;;;;;;;;;;;
2023/01/04 21:18:59;;;;;;;2.70;2.10;;;;;;;10.08;61.27;98807.42;234811;1193;139362;-71
2023/01/04 21:24:29;;;;;;;;;;;;;;;;;;;;;
2023/01/04 21:31:01;;;;;;;3.00;1.90;;;;;;;10.12;61.20;98793.13;235075;1192;138860;-69
2023/01/04 21:37:29;;;;;;;3.10;1.80;;;;;;;10.15;60.93;98780.03;234363;1196;138588;-69
2023/01/04 21:43:24;;;;;;;1.80;1.40;;;;;;;10.18;60.95;98776.79;234322;1196;139047;-72
2023/01/04 21:49:44;;;;;;;2.80;1.70;;;;;;;10.17;61.25;98753.06;234338;1196;138787;-72
2023/01/04 21:55:17;;;;;;;2.40;1.60;;;;;;;10.19;61.28;98752.45;235334;1192;139797;-72
2023/01/04 22:01:32;;;;;;;;;;;;;;;;;;;;;
2023/01/04 22:07:54;;;;;;;;;;;;;;;;;;;;;
2023/01/04 22:33:16;;;;;;;3.00;1.90;;;;;;;10.30;61.87;98703.16;234548;1193;138543;-67
2023/01/04 22:39:24;;;;;;;2.60;1.80;;;;;;;10.31;61.82;98680.45;234671;1198;138270;-69
2023/01/04 22:45:36;;;;;;;2.10;1.50;;;;;;;10.34;61.75;98673.98;234556;1196;139061;-74
2023/01/04 22:58:08;;;;;;;;;;;;;;;;;;;;;
2023/01/04 23:04:24;;;;;;;2.00;1.30;;;;;;;10.48;61.81;98663.33;235037;1196;139624;-70
2023/01/04 23:09:49;;;;;;;2.20;1.60;;;;;;;10.60;61.70;98660.16;234885;1192;139311;-72
2023/01/04 23:15:29;;;;;;;;;;;;;;;;;;;;;
2023/01/04 23:21:50;;;;;;;1.90;1.30;;;;;;;10.67;61.71;98636.31;234869;1194;139403;-70
2023/01/04 23:27:10;;;;;;;3.50;1.40;;;;;;;10.68;62.17;98618.85;234777;1193;140038;-74
2023/01/04 23:40:17;;;;;;;2.10;1.50;;;;;;;10.69;62.23;98604.73;234859;1193;140016;-70
2023/01/04 23:45:47;;;;;;;2.30;1.20;;;;;;;10.71;62.61;98607.13;235379;1192;138881;-68
2023/01/04 23:52:00;;;;;;;1.80;1.10;;;;;;;10.71;62.51;98595.73;234907;1194;140012;-67
2023/01/04 23:57:45;;;;;;;;;;;;;;;;;;;;;
